Terminal Aerodrome Forecast
Issued by NWS North Platte, NE

Home | Current Version | Previous Version | Text Only | Print | Product List | Glossary Off
Versions: 1 2 3 4 5 6 7 8 9 10 11 12 13 14 15 16

864
FTUS43 KLBF 091735
TAFVTN
TAF
KVTN 091735Z 0918/1018 29010G16KT P6SM SKC
     FM100200 28010G17KT P6SM SKC=

USA.gov is the U.S. government's official web portal to all federal, state and local government web resources and services.